Time;durP1;ratioP1;P1;durP2;ratioP2;P2;SDS_P1;SDS_P2;PMS_P1;PMS_P2;Temp;Humidity;BMP_temperature;BMP_pressure;BME280_temperature;BME280_humidity;BME280_pressure;Samples;Min_cycle;Max_cycle;Signal;HPM_P1;HPM_P2
2022/01/04 00:01:47;;;;;;;1.50;1.40;;;12.00;99.90;;;;;;5033994;28;20567;-69
2022/01/04 00:04:14;;;;;;;1.45;1.35;;;12.00;99.90;;;;;;5033798;28;20205;-69
2022/01/04 00:06:41;;;;;;;1.42;1.30;;;12.00;99.90;;;;;;5033906;28;20630;-69
2022/01/04 00:09:10;;;;;;;1.13;1.10;;;12.00;99.90;;;;;;5033754;28;20247;-69
2022/01/04 00:11:56;;;;;;;2.35;1.63;;;11.90;99.90;;;;;;5033736;28;20247;-69
2022/01/04 00:14:25;;;;;;;1.65;1.40;;;11.90;99.90;;;;;;5033328;28;20215;-70
2022/01/04 00:16:55;;;;;;;1.52;1.42;;;11.90;99.90;;;;;;5033622;28;20625;-69
2022/01/04 00:19:22;;;;;;;2.22;1.85;;;11.90;99.90;;;;;;5033554;28;20204;-70
2022/01/04 00:21:49;;;;;;;2.08;1.70;;;11.90;99.90;;;;;;5037569;28;20207;-69
2022/01/04 00:24:16;;;;;;;1.33;1.23;;;11.90;99.90;;;;;;5037471;28;20527;-69
2022/01/04 00:26:43;;;;;;;1.88;1.35;;;11.90;99.90;;;;;;5036550;28;20263;-70
2022/01/04 00:29:09;;;;;;;1.52;1.42;;;11.80;99.90;;;;;;5036470;28;20194;-69
2022/01/04 00:31:38;;;;;;;1.35;1.25;;;11.90;99.90;;;;;;5036778;28;20271;-69
2022/01/04 00:34:04;;;;;;;3.42;2.28;;;11.80;99.90;;;;;;5036238;28;20310;-69
2022/01/04 00:36:31;;;;;;;1.90;1.40;;;11.80;99.90;;;;;;5036375;28;20227;-69
2022/01/04 00:38:58;;;;;;;1.95;1.38;;;11.80;99.90;;;;;;5036115;28;20211;-69
2022/01/04 00:41:25;;;;;;;2.58;1.45;;;11.80;99.90;;;;;;5036452;28;20207;-69
2022/01/04 00:43:52;;;;;;;1.60;1.50;;;11.80;99.90;;;;;;5036619;28;20296;-70
2022/01/04 00:46:18;;;;;;;2.72;1.55;;;11.80;99.90;;;;;;5036639;28;20243;-69
2022/01/04 00:51:32;;;;;;;2.13;1.30;;;11.80;99.90;;;;;;5036956;28;20196;-69
2022/01/04 00:53:58;;;;;;;1.88;1.33;;;11.90;99.90;;;;;;5036042;28;20224;-69
2022/01/04 00:56:25;;;;;;;1.90;1.40;;;11.80;99.90;;;;;;5035751;28;20653;-69
2022/01/04 00:58:53;;;;;;;1.67;1.58;;;11.80;99.90;;;;;;5035809;28;20204;-70
2022/01/04 01:01:20;;;;;;;2.42;1.30;;;11.80;99.90;;;;;;5036041;28;20298;-69
2022/01/04 01:03:48;;;;;;;1.55;1.45;;;11.80;99.90;;;;;;5035678;28;20210;-70
2022/01/04 01:06:15;;;;;;;1.40;1.13;;;11.80;99.90;;;;;;5035344;28;20655;-69
2022/01/04 01:08:42;;;;;;;1.55;1.45;;;11.80;99.90;;;;;;5035848;28;20232;-69
2022/01/04 01:11:09;;;;;;;1.80;1.40;;;11.90;99.90;;;;;;5035836;28;20287;-69
2022/01/04 01:13:37;;;;;;;1.25;1.15;;;11.80;99.90;;;;;;5035549;28;20220;-69
2022/01/04 01:16:05;;;;;;;1.30;1.20;;;11.70;99.90;;;;;;5035259;28;20204;-69
2022/01/04 01:18:32;;;;;;;2.30;1.67;;;11.70;99.90;;;;;;5035469;28;20295;-69
2022/01/04 01:21:00;;;;;;;1.60;1.50;;;11.70;99.90;;;;;;5035345;28;20655;-69
2022/01/04 01:23:27;;;;;;;1.80;1.60;;;11.70;99.90;;;;;;5035268;28;20209;-69
2022/01/04 01:25:54;;;;;;;1.65;1.42;;;11.70;99.90;;;;;;5035252;28;20657;-69
2022/01/04 01:28:22;;;;;;;2.78;1.50;;;11.70;99.90;;;;;;5035557;28;20319;-69
2022/01/04 01:30:49;;;;;;;2.97;1.70;;;11.70;99.90;;;;;;5035747;28;20243;-69
2022/01/04 01:33:16;;;;;;;1.60;1.50;;;11.70;99.90;;;;;;5035851;28;20295;-69
2022/01/04 01:35:44;;;;;;;1.50;1.40;;;11.70;99.90;;;;;;5035525;28;20299;-69
2022/01/04 01:38:14;;;;;;;1.90;1.70;;;11.70;99.90;;;;;;5035612;28;20227;-69
2022/01/04 01:40:41;;;;;;;2.45;1.60;;;11.70;99.90;;;;;;5036057;28;20272;-69
2022/01/04 01:43:09;;;;;;;4.13;1.58;;;11.70;99.90;;;;;;5035453;28;20204;-69
2022/01/04 01:45:37;;;;;;;1.95;1.77;;;11.60;99.90;;;;;;5035545;28;20208;-69
2022/01/04 01:48:04;;;;;;;1.73;1.55;;;11.60;99.90;;;;;;5035436;28;20590;-69
2022/01/04 01:50:32;;;;;;;1.80;1.70;;;11.60;99.90;;;;;;5035621;28;20291;-69
2022/01/04 01:52:59;;;;;;;2.28;1.63;;;11.50;99.90;;;;;;5035276;28;20204;-69
2022/01/04 01:55:27;;;;;;;2.88;1.75;;;11.60;99.90;;;;;;5035342;28;20224;-69
2022/01/04 01:57:55;;;;;;;2.85;1.70;;;11.50;99.90;;;;;;5035514;28;20224;-69
2022/01/04 02:00:24;;;;;;;1.85;1.75;;;11.50;99.90;;;;;;5035396;28;20204;-69
2022/01/04 02:02:51;;;;;;;2.85;2.00;;;11.40;99.90;;;;;;5035219;28;20208;-69
2022/01/04 02:05:18;;;;;;;2.08;1.98;;;11.40;99.90;;;;;;5034723;28;20200;-69
2022/01/04 02:07:46;;;;;;;2.50;2.00;;;11.30;99.90;;;;;;5035097;28;20245;-69
2022/01/04 02:10:13;;;;;;;1.85;1.75;;;11.30;99.90;;;;;;5035054;28;20208;-69
2022/01/04 02:12:46;;;;;;;1.92;1.70;;;11.30;99.90;;;;;;5035025;28;20294;-70
2022/01/04 02:15:15;;;;;;;1.95;1.63;;;11.30;99.90;;;;;;5034943;28;20231;-69
2022/01/04 02:17:42;;;;;;;2.53;2.05;;;11.30;99.90;;;;;;5034505;28;20240;-69
2022/01/04 02:20:11;;;;;;;2.00;1.90;;;11.30;99.90;;;;;;5035001;28;20227;-69
2022/01/04 02:22:39;;;;;;;3.05;2.00;;;11.30;99.90;;;;;;5034481;28;20211;-69
2022/01/04 02:25:07;;;;;;;2.15;2.00;;;11.30;99.90;;;;;;5034460;28;20300;-70
2022/01/04 02:27:35;;;;;;;1.85;1.75;;;11.30;99.90;;;;;;5034354;28;20318;-69
2022/01/04 02:30:04;;;;;;;2.25;2.05;;;11.30;99.90;;;;;;5034741;28;20204;-70
2022/01/04 02:32:30;;;;;;;2.60;2.40;;;11.30;99.90;;;;;;5034533;28;20566;-69
2022/01/04 02:34:57;;;;;;;2.42;2.22;;;11.30;99.90;;;;;;5034156;28;20232;-69
2022/01/04 02:37:27;;;;;;;2.42;2.20;;;11.30;99.90;;;;;;5034364;28;20314;-69
2022/01/04 02:39:55;;;;;;;2.30;1.90;;;11.40;99.90;;;;;;5034436;28;20310;-70
2022/01/04 02:42:23;;;;;;;2.88;2.63;;;11.40;99.90;;;;;;5033699;28;20204;-69
2022/01/04 02:44:50;;;;;;;2.30;2.10;;;11.40;99.90;;;;;;5034092;28;20200;-69
2022/01/04 02:47:17;;;;;;;1.98;1.85;;;11.40;99.90;;;;;;5034921;28;20224;-69
2022/01/04 02:49:44;;;;;;;2.40;2.20;;;11.40;99.90;;;;;;5034573;28;20575;-69
2022/01/04 02:52:11;;;;;;;2.30;2.20;;;11.40;99.90;;;;;;5034398;28;20204;-69
2022/01/04 02:54:39;;;;;;;3.08;2.10;;;11.30;99.90;;;;;;5034262;28;20240;-69
2022/01/04 02:57:07;;;;;;;3.30;2.53;;;11.40;99.90;;;;;;5034288;28;20594;-69
2022/01/04 02:59:33;;;;;;;2.20;2.00;;;11.50;99.90;;;;;;5034570;28;20203;-70
2022/01/04 03:02:00;;;;;;;2.78;2.58;;;11.50;99.90;;;;;;5034451;28;20206;-70
2022/01/04 03:04:29;;;;;;;2.50;2.30;;;11.50;99.90;;;;;;5034438;28;20256;-69
2022/01/04 03:06:55;;;;;;;2.28;2.05;;;11.50;99.90;;;;;;5034375;28;20220;-69
2022/01/04 03:09:22;;;;;;;2.70;2.50;;;11.50;99.90;;;;;;5034736;28;20298;-69
2022/01/04 03:11:50;;;;;;;3.00;2.80;;;11.50;99.90;;;;;;5034085;28;20200;-69
2022/01/04 03:14:17;;;;;;;2.65;2.45;;;11.50;99.90;;;;;;5033981;28;20235;-69
2022/01/04 03:16:44;;;;;;;2.13;1.98;;;11.60;99.90;;;;;;5033858;28;20582;-69
2022/01/04 03:19:11;;;;;;;2.40;2.30;;;11.50;99.90;;;;;;5034045;28;20204;-69
2022/01/04 03:21:40;;;;;;;3.65;2.25;;;11.50;99.90;;;;;;5034142;28;20298;-70
2022/01/04 03:24:10;;;;;;;2.45;2.25;;;11.60;99.90;;;;;;5033810;28;20211;-69
2022/01/04 03:26:37;;;;;;;2.65;2.45;;;11.50;99.90;;;;;;5033461;28;20306;-70
2022/01/04 03:29:07;;;;;;;2.40;2.20;;;11.50;99.90;;;;;;5033666;28;20204;-69
2022/01/04 03:31:34;;;;;;;3.35;2.50;;;11.50;99.90;;;;;;5033646;28;20299;-69
2022/01/04 03:34:02;;;;;;;2.33;2.13;;;11.50;99.90;;;;;;5033724;28;20218;-70
2022/01/04 03:36:29;;;;;;;2.58;2.30;;;11.50;99.90;;;;;;5033510;28;20262;-69
2022/01/04 03:38:57;;;;;;;2.28;2.17;;;11.60;99.90;;;;;;5034101;28;20208;-69
2022/01/04 03:41:27;;;;;;;2.42;2.15;;;11.60;99.90;;;;;;5033634;28;20624;-69
2022/01/04 03:43:55;;;;;;;2.33;2.13;;;11.50;99.90;;;;;;5033707;28;20204;-69
2022/01/04 03:46:24;;;;;;;2.20;2.05;;;11.50;99.90;;;;;;5033837;28;20623;-69
2022/01/04 03:48:50;;;;;;;2.72;2.53;;;11.50;99.90;;;;;;5034032;28;20204;-69
2022/01/04 03:51:19;;;;;;;2.47;2.28;;;11.50;99.90;;;;;;5033826;28;20210;-70
2022/01/04 03:53:46;;;;;;;2.20;2.00;;;11.50;99.90;;;;;;5034087;28;20300;-69
2022/01/04 03:56:13;;;;;;;2.10;2.00;;;11.50;99.90;;;;;;5037177;28;20315;-69
2022/01/04 03:58:40;;;;;;;2.75;2.22;;;11.60;99.90;;;;;;5037313;28;20204;-69
2022/01/04 04:01:07;;;;;;;2.65;2.45;;;11.50;99.90;;;;;;5037621;28;20232;-69
2022/01/04 04:03:35;;;;;;;2.22;2.03;;;11.50;99.90;;;;;;5037565;28;20606;-69
2022/01/04 04:06:02;;;;;;;2.40;2.20;;;11.50;99.90;;;;;;5037166;28;20197;-69
2022/01/04 04:08:29;;;;;;;2.00;1.90;;;11.50;99.90;;;;;;5037219;28;20204;-69
2022/01/04 04:10:56;;;;;;;1.88;1.77;;;11.50;99.90;;;;;;5037273;28;20210;-69
2022/01/04 04:13:23;;;;;;;1.77;1.67;;;11.50;99.90;;;;;;5037394;28;20204;-69
2022/01/04 04:15:49;;;;;;;2.05;1.95;;;11.50;99.90;;;;;;5036921;28;20250;-69
2022/01/04 04:18:17;;;;;;;2.20;1.98;;;11.60;99.90;;;;;;5037052;28;20315;-69
2022/01/04 04:20:46;;;;;;;1.85;1.70;;;11.70;99.90;;;;;;5037668;28;20204;-69
2022/01/04 04:23:13;;;;;;;2.15;1.67;;;11.70;99.90;;;;;;5037386;28;20294;-69
2022/01/04 04:25:40;;;;;;;1.70;1.60;;;11.80;99.90;;;;;;5037043;28;20200;-69
2022/01/04 04:28:07;;;;;;;1.70;1.60;;;11.90;99.90;;;;;;5036712;28;20232;-69
2022/01/04 04:30:34;;;;;;;1.48;1.40;;;11.90;99.90;;;;;;5037302;28;20294;-69
2022/01/04 04:33:01;;;;;;;1.60;1.50;;;12.00;99.90;;;;;;5036875;28;20666;-69
2022/01/04 04:35:29;;;;;;;2.45;1.80;;;12.00;99.90;;;;;;5036604;28;20231;-69
2022/01/04 04:37:58;;;;;;;1.75;1.65;;;12.00;99.90;;;;;;5036981;28;20224;-69
2022/01/04 04:40:25;;;;;;;1.85;1.75;;;12.00;99.90;;;;;;5036666;28;20208;-69
2022/01/04 04:42:52;;;;;;;1.77;1.52;;;12.00;99.90;;;;;;5036636;28;20289;-69
2022/01/04 04:45:19;;;;;;;2.55;1.90;;;12.00;99.90;;;;;;5036257;28;20200;-69
2022/01/04 04:47:46;;;;;;;1.60;1.50;;;12.00;99.90;;;;;;5036575;28;20230;-69
2022/01/04 04:50:13;;;;;;;1.90;1.77;;;11.90;99.90;;;;;;5036381;28;20299;-69
2022/01/04 04:52:40;;;;;;;2.08;1.65;;;11.90;99.90;;;;;;5036550;28;20203;-69
2022/01/04 04:55:10;;;;;;;1.90;1.42;;;11.90;99.90;;;;;;5036141;28;20228;-69
2022/01/04 04:57:38;;;;;;;2.75;1.60;;;11.90;99.90;;;;;;5036345;28;20228;-69
2022/01/04 05:00:07;;;;;;;1.63;1.52;;;12.00;99.90;;;;;;5036230;28;20741;-69
2022/01/04 05:02:34;;;;;;;2.00;1.83;;;12.00;99.90;;;;;;5036259;28;20204;-69
2022/01/04 05:05:01;;;;;;;1.70;1.60;;;12.00;99.90;;;;;;5036003;28;20206;-69
2022/01/04 05:07:28;;;;;;;1.83;1.58;;;12.00;99.90;;;;;;5035605;28;20307;-69
2022/01/04 05:09:54;;;;;;;1.60;1.50;;;12.00;99.90;;;;;;5036402;28;20295;-69
2022/01/04 05:12:23;;;;;;;1.73;1.63;;;12.00;99.90;;;;;;5036346;28;20620;-69
2022/01/04 05:14:49;;;;;;;1.92;1.80;;;12.00;99.90;;;;;;5035973;28;20208;-69
2022/01/04 05:17:16;;;;;;;1.65;1.55;;;12.00;99.90;;;;;;5036071;28;20315;-69
2022/01/04 05:19:43;;;;;;;1.80;1.70;;;12.00;99.90;;;;;;5035969;28;20239;-69
2022/01/04 05:22:10;;;;;;;1.80;1.70;;;11.90;99.90;;;;;;5036140;28;20200;-69
2022/01/04 05:24:37;;;;;;;2.00;1.90;;;11.90;99.90;;;;;;5035749;28;20204;-70
2022/01/04 05:27:05;;;;;;;2.00;1.90;;;11.90;99.90;;;;;;5035923;28;20327;-69
2022/01/04 05:29:33;;;;;;;2.00;1.90;;;11.90;99.90;;;;;;5036099;28;20619;-69
2022/01/04 05:32:00;;;;;;;2.25;2.03;;;11.90;99.90;;;;;;5035899;28;20204;-69
2022/01/04 05:34:26;;;;;;;2.00;1.90;;;11.80;99.90;;;;;;5035368;28;20208;-69
2022/01/04 05:36:53;;;;;;;2.05;1.95;;;11.80;99.90;;;;;;5035602;28;20246;-69
2022/01/04 05:39:20;;;;;;;1.80;1.70;;;11.80;99.90;;;;;;5036030;28;20208;-69
2022/01/04 05:41:47;;;;;;;2.00;1.88;;;11.70;99.90;;;;;;5035590;28;20210;-69
2022/01/04 05:44:15;;;;;;;2.00;1.90;;;11.70;99.90;;;;;;5035370;28;20200;-69
2022/01/04 05:46:43;;;;;;;2.30;2.10;;;11.70;99.90;;;;;;5035331;28;20303;-69
2022/01/04 05:49:10;;;;;;;1.90;1.80;;;11.60;99.90;;;;;;5035038;28;20218;-69
2022/01/04 05:51:36;;;;;;;2.25;1.73;;;11.50;99.90;;;;;;5035479;28;20282;-69
2022/01/04 05:54:03;;;;;;;2.58;2.20;;;11.50;99.90;;;;;;5035113;28;20677;-70
2022/01/04 05:56:30;;;;;;;3.45;1.90;;;11.60;99.90;;;;;;5034843;28;20223;-69
2022/01/04 05:58:57;;;;;;;3.08;2.80;;;11.60;99.90;;;;;;5035085;28;20295;-69
2022/01/04 06:01:24;;;;;;;1.77;1.67;;;11.60;99.90;;;;;;5035175;28;20207;-69
2022/01/04 06:03:52;;;;;;;2.28;2.10;;;11.60;99.90;;;;;;5034913;28;20643;-69
2022/01/04 06:06:19;;;;;;;2.90;2.15;;;11.60;99.90;;;;;;5035144;28;20532;-69
2022/01/04 06:08:46;;;;;;;2.40;1.85;;;11.70;99.90;;;;;;5035550;28;20298;-70
2022/01/04 06:11:30;;;;;;;2.17;1.98;;;11.60;99.90;;;;;;5035177;28;20567;-69
2022/01/04 06:16:41;;;;;;;2.03;1.92;;;11.40;99.90;;;;;;5034197;28;20238;-69
2022/01/04 06:19:09;;;;;;;2.38;2.00;;;11.40;99.90;;;;;;5033936;28;20200;-70
2022/01/04 06:21:36;;;;;;;2.30;2.10;;;11.40;99.90;;;;;;5034858;28;20291;-69
2022/01/04 06:24:03;;;;;;;1.88;1.77;;;11.40;99.90;;;;;;5034615;28;20204;-70
2022/01/04 06:26:30;;;;;;;1.98;1.88;;;11.40;99.90;;;;;;5034204;28;20216;-70
2022/01/04 06:28:57;;;;;;;1.90;1.80;;;11.40;99.90;;;;;;5034597;28;20546;-70
2022/01/04 06:31:26;;;;;;;1.95;1.80;;;11.40;99.90;;;;;;5034462;28;20206;-69
2022/01/04 06:33:52;;;;;;;1.90;1.80;;;11.40;99.90;;;;;;5034445;28;20287;-70
2022/01/04 06:36:21;;;;;;;2.03;1.75;;;11.40;99.90;;;;;;5033799;28;20236;-69
2022/01/04 06:38:48;;;;;;;2.17;1.98;;;11.40;99.90;;;;;;5034327;28;20214;-70
2022/01/04 06:41:15;;;;;;;1.98;1.80;;;11.40;99.90;;;;;;5034368;28;20295;-70
2022/01/04 06:43:42;;;;;;;1.80;1.70;;;11.40;99.90;;;;;;5034216;28;20213;-70
2022/01/04 06:46:11;;;;;;;1.98;1.88;;;11.50;99.90;;;;;;5033810;28;20290;-70
2022/01/04 06:48:38;;;;;;;2.33;2.13;;;11.50;99.90;;;;;;5034258;28;20215;-70
2022/01/04 06:51:05;;;;;;;2.50;2.30;;;11.50;99.90;;;;;;5034357;28;20211;-69
2022/01/04 06:53:34;;;;;;;3.28;1.77;;;11.50;99.90;;;;;;5034157;28;20204;-69
2022/01/04 06:56:01;;;;;;;2.20;2.10;;;11.50;99.90;;;;;;5033691;28;20698;-70
2022/01/04 06:58:28;;;;;;;2.50;1.45;;;11.50;99.90;;;;;;5033928;28;20310;-70
2022/01/04 07:00:55;;;;;;;2.25;1.63;;;11.50;99.90;;;;;;5034296;28;20299;-70
2022/01/04 07:03:22;;;;;;;2.17;1.60;;;11.50;99.90;;;;;;5034174;28;20216;-69
2022/01/04 07:05:49;;;;;;;1.80;1.60;;;11.60;99.90;;;;;;5033919;28;20286;-70
2022/01/04 07:08:16;;;;;;;1.80;1.70;;;11.60;99.90;;;;;;5033958;28;20220;-70
2022/01/04 07:10:44;;;;;;;1.75;1.65;;;11.60;99.90;;;;;;5033721;28;20207;-70
2022/01/04 07:13:11;;;;;;;1.83;1.45;;;11.50;99.90;;;;;;5034071;28;20294;-70
2022/01/04 07:15:38;;;;;;;2.85;1.50;;;11.60;99.90;;;;;;5034058;28;20224;-70
2022/01/04 07:18:06;;;;;;;1.65;1.55;;;11.60;99.90;;;;;;5033424;28;20231;-69
2022/01/04 07:20:33;;;;;;;1.77;1.67;;;11.70;99.90;;;;;;5034174;28;20259;-70
2022/01/04 07:22:59;;;;;;;1.48;1.38;;;11.70;99.90;;;;;;5034381;28;20287;-70
2022/01/04 07:25:26;;;;;;;1.98;1.50;;;11.70;99.90;;;;;;5033788;28;20291;-70
2022/01/04 07:27:54;;;;;;;1.55;1.45;;;11.70;99.90;;;;;;5033499;28;20231;-70
2022/01/04 07:30:21;;;;;;;1.70;1.50;;;11.60;99.90;;;;;;5037776;28;20212;-70
2022/01/04 07:32:48;;;;;;;1.60;1.50;;;11.70;99.90;;;;;;5038167;28;20212;-70
2022/01/04 07:35:15;;;;;;;1.70;1.50;;;11.70;99.90;;;;;;5037527;28;20299;-69
2022/01/04 07:37:42;;;;;;;1.70;1.60;;;11.60;99.90;;;;;;5037711;28;20586;-69
2022/01/04 07:40:09;;;;;;;1.63;1.52;;;11.60;99.90;;;;;;5037749;28;20204;-70
2022/01/04 07:42:36;;;;;;;2.60;1.40;;;11.60;99.90;;;;;;5037791;28;20696;-70
2022/01/04 07:45:05;;;;;;;1.58;1.40;;;11.70;99.90;;;;;;5037745;28;20199;-69
2022/01/04 07:47:32;;;;;;;1.75;1.65;;;11.70;99.90;;;;;;5037680;28;20216;-70
2022/01/04 07:49:59;;;;;;;1.65;1.40;;;11.70;99.90;;;;;;5037797;28;20294;-70
2022/01/04 07:52:26;;;;;;;1.30;1.20;;;11.80;99.90;;;;;;5038261;28;20203;-70
2022/01/04 07:54:53;;;;;;;1.25;1.23;;;11.90;99.90;;;;;;5037164;28;20295;-69
2022/01/04 07:57:20;;;;;;;1.60;1.50;;;11.90;99.90;;;;;;5037430;28;20248;-70
2022/01/04 07:59:47;;;;;;;1.63;1.33;;;12.00;99.90;;;;;;5037443;28;20214;-69
2022/01/04 08:02:16;;;;;;;1.25;1.15;;;12.10;99.90;;;;;;5037445;28;20294;-70
2022/01/04 08:04:42;;;;;;;1.45;1.10;;;12.20;99.90;;;;;;5037419;28;20232;-70
2022/01/04 08:07:09;;;;;;;1.20;1.10;;;12.30;99.90;;;;;;5037124;28;20226;-69
2022/01/04 08:09:36;;;;;;;1.20;1.20;;;12.40;99.90;;;;;;5037656;28;20296;-69
2022/01/04 08:12:04;;;;;;;1.27;1.17;;;12.50;99.90;;;;;;5037156;28;20269;-70
2022/01/04 08:14:30;;;;;;;1.40;1.30;;;12.60;99.90;;;;;;5037280;28;20287;-70
2022/01/04 08:16:57;;;;;;;1.25;1.15;;;12.60;99.90;;;;;;5036943;28;20268;-69
2022/01/04 08:19:25;;;;;;;1.52;1.33;;;12.70;99.90;;;;;;5037586;28;20204;-69
2022/01/04 08:21:52;;;;;;;1.67;1.58;;;12.70;99.90;;;;;;5037145;28;20303;-70
2022/01/04 08:24:19;;;;;;;6.93;1.35;;;12.80;99.90;;;;;;5037083;28;20250;-69
2022/01/04 08:26:46;;;;;;;1.30;1.20;;;12.80;99.90;;;;;;5036879;28;20227;-70
2022/01/04 08:29:13;;;;;;;1.75;1.60;;;12.80;99.90;;;;;;5037164;28;20561;-70
2022/01/04 08:31:40;;;;;;;4.63;1.40;;;12.90;99.90;;;;;;5037394;28;20291;-70
2022/01/04 08:34:06;;;;;;;1.45;1.35;;;12.90;99.90;;;;;;5036926;28;20204;-70
2022/01/04 08:36:36;;;;;;;2.85;1.20;;;12.90;99.90;;;;;;5036316;28;20228;-70
2022/01/04 08:39:04;;;;;;;1.35;1.10;;;13.00;99.90;;;;;;5036817;28;20211;-69
2022/01/04 08:41:31;;;;;;;1.08;1.00;;;13.00;99.90;;;;;;5035666;28;20653;-70
2022/01/04 08:43:58;;;;;;;1.40;1.30;;;13.10;99.90;;;;;;5036797;28;20208;-69
2022/01/04 08:46:25;;;;;;;1.20;1.10;;;13.10;99.90;;;;;;5036194;28;20290;-69
2022/01/04 08:48:52;;;;;;;1.30;1.25;;;13.10;99.90;;;;;;5036754;28;20569;-69
2022/01/04 08:51:18;;;;;;;1.30;1.20;;;13.20;99.90;;;;;;5036881;28;20242;-69
2022/01/04 08:53:47;;;;;;;1.75;1.50;;;13.20;99.90;;;;;;5036871;28;20243;-69
2022/01/04 08:56:13;;;;;;;2.70;1.00;;;13.20;99.90;;;;;;5036544;28;20227;-70
2022/01/04 08:58:40;;;;;;;1.63;1.35;;;13.30;99.90;;;;;;5036610;28;20235;-70
2022/01/04 09:01:07;;;;;;;1.42;1.33;;;13.30;99.90;;;;;;5036263;28;20644;-69
2022/01/04 09:03:34;;;;;;;1.40;1.30;;;13.30;99.90;;;;;;5036725;28;20243;-69
2022/01/04 09:06:01;;;;;;;1.30;1.20;;;13.30;99.90;;;;;;5036103;28;20205;-70
2022/01/04 09:08:27;;;;;;;1.30;1.20;;;13.40;99.90;;;;;;5036411;28;20322;-69
2022/01/04 09:10:56;;;;;;;3.38;1.20;;;13.40;99.90;;;;;;5036366;28;20630;-70
2022/01/04 09:13:24;;;;;;;1.20;1.10;;;13.50;99.90;;;;;;5036657;28;20290;-70
2022/01/04 09:18:46;;;;;;;1.60;1.50;;;13.50;99.90;;;;;;5035950;28;20646;-70
2022/01/04 09:21:13;;;;;;;1.83;1.73;;;13.50;99.90;;;;;;5036134;28;20194;-69
2022/01/04 09:23:40;;;;;;;2.25;1.23;;;13.50;99.90;;;;;;5035861;28;20315;-69
2022/01/04 09:26:09;;;;;;;1.40;1.30;;;13.50;99.90;;;;;;5035326;28;20203;-69
2022/01/04 09:28:36;;;;;;;1.30;1.20;;;13.50;99.90;;;;;;5035655;28;20303;-69
2022/01/04 09:31:04;;;;;;;1.20;1.10;;;13.40;99.90;;;;;;5035659;28;20667;-69
2022/01/04 09:33:32;;;;;;;1.30;1.30;;;13.40;99.90;;;;;;5035475;28;20204;-69
2022/01/04 09:35:59;;;;;;;2.22;1.50;;;13.40;99.90;;;;;;5035416;28;20211;-70
2022/01/04 09:38:26;;;;;;;1.13;1.13;;;13.30;99.90;;;;;;5035564;28;20247;-69
2022/01/04 09:40:55;;;;;;;1.60;1.50;;;13.30;99.90;;;;;;5035199;28;20204;-69
2022/01/04 09:43:24;;;;;;;2.22;1.10;;;13.20;99.90;;;;;;5035775;28;20212;-69
2022/01/04 09:45:52;;;;;;;1.60;1.50;;;13.20;99.90;;;;;;5035413;28;20204;-70
2022/01/04 09:48:20;;;;;;;2.50;1.13;;;13.20;99.90;;;;;;5035407;28;20231;-69
2022/01/04 09:50:49;;;;;;;1.60;1.50;;;13.20;99.90;;;;;;5035192;28;20686;-70
2022/01/04 09:53:20;;;;;;;1.27;1.17;;;13.20;99.90;;;;;;5035077;28;20298;-70
2022/01/04 09:55:49;;;;;;;1.77;1.45;;;13.20;99.90;;;;;;5034899;28;20185;-69
2022/01/04 09:58:18;;;;;;;1.50;1.40;;;13.10;99.90;;;;;;5035305;28;20310;-69
2022/01/04 10:00:47;;;;;;;1.40;1.30;;;13.20;99.90;;;;;;5035404;28;20254;-69
2022/01/04 10:03:16;;;;;;;1.50;1.25;;;13.20;99.90;;;;;;5035565;28;20214;-70
2022/01/04 10:05:43;;;;;;;1.52;1.42;;;13.20;99.90;;;;;;5035380;28;20201;-69
2022/01/04 10:08:12;;;;;;;1.40;1.30;;;13.20;99.90;;;;;;5034871;28;20224;-69
2022/01/04 10:10:40;;;;;;;1.48;1.40;;;13.20;99.90;;;;;;5034853;28;20208;-69
2022/01/04 10:13:09;;;;;;;1.60;1.50;;;13.30;99.90;;;;;;5034914;28;20649;-69
2022/01/04 10:15:39;;;;;;;1.17;1.17;;;13.30;99.90;;;;;;5035015;28;20204;-69
2022/01/04 10:18:23;;;;;;;1.55;1.38;;;13.30;99.90;;;;;;5034845;28;20242;-70
2022/01/04 10:21:10;;;;;;;1.45;1.35;;;13.30;99.90;;;;;;5034810;28;20204;-69
2022/01/04 10:23:48;;;;;;;1.70;1.60;;;13.30;99.90;;;;;;5034757;28;20290;-70
2022/01/04 10:26:15;;;;;;;1.45;1.35;;;13.30;99.90;;;;;;5034328;28;20206;-70
2022/01/04 10:28:44;;;;;;;1.70;1.60;;;13.30;99.90;;;;;;5034633;28;20258;-70
2022/01/04 10:31:13;;;;;;;1.92;1.60;;;13.30;99.90;;;;;;5034584;28;20208;-69
2022/01/04 10:33:42;;;;;;;2.22;1.80;;;13.30;99.90;;;;;;5034728;28;20558;-69
2022/01/04 10:36:13;;;;;;;2.55;1.83;;;13.40;99.90;;;;;;5034305;28;20214;-70
2022/01/04 10:38:42;;;;;;;2.00;1.88;;;13.50;99.90;;;;;;5035175;28;20194;-70
2022/01/04 10:41:11;;;;;;;3.65;1.70;;;13.60;99.90;;;;;;5034773;28;20211;-70
2022/01/04 10:43:40;;;;;;;1.90;1.73;;;13.60;99.90;;;;;;5035048;28;20208;-70
2022/01/04 10:46:08;;;;;;;2.00;1.85;;;13.70;99.90;;;;;;5034717;28;20255;-70
2022/01/04 10:48:39;;;;;;;2.03;1.83;;;13.70;99.90;;;;;;5034739;28;20230;-69
2022/01/04 10:51:09;;;;;;;1.45;1.35;;;13.70;99.90;;;;;;5034868;28;20204;-70
2022/01/04 10:53:39;;;;;;;1.70;1.60;;;13.80;99.90;;;;;;5034531;28;20668;-70
2022/01/04 10:56:08;;;;;;;2.75;1.90;;;13.80;99.90;;;;;;5034554;28;20232;-70
2022/01/04 10:58:37;;;;;;;2.08;1.83;;;13.70;99.90;;;;;;5034752;28;20196;-69
2022/01/04 11:01:07;;;;;;;1.83;1.73;;;13.70;99.90;;;;;;5034771;28;20667;-70
2022/01/04 11:03:35;;;;;;;2.65;1.90;;;13.60;99.90;;;;;;5033862;28;20205;-70
2022/01/04 11:06:13;;;;;;;1.90;1.80;;;13.60;99.90;;;;;;5034385;28;20212;-69
2022/01/04 11:08:41;;;;;;;1.90;1.80;;;13.60;99.90;;;;;;5034351;28;20638;-70
2022/01/04 11:11:08;;;;;;;1.45;1.35;;;13.60;99.90;;;;;;5034622;28;20209;-70
2022/01/04 11:13:35;;;;;;;2.00;1.90;;;13.70;99.90;;;;;;5034504;28;20210;-70
2022/01/04 11:16:03;;;;;;;2.13;1.92;;;13.70;99.90;;;;;;5034520;28;20255;-70
2022/01/04 11:18:32;;;;;;;2.10;1.90;;;13.80;99.90;;;;;;5034092;28;20311;-70
2022/01/04 11:20:59;;;;;;;2.30;1.98;;;13.80;99.90;;;;;;5033999;28;20212;-70
2022/01/04 11:23:29;;;;;;;1.70;1.60;;;13.90;99.90;;;;;;5034302;28;20206;-69
2022/01/04 11:25:58;;;;;;;1.98;1.77;;;13.90;99.90;;;;;;5033886;28;20216;-69
2022/01/04 11:28:25;;;;;;;1.92;1.83;;;13.90;99.90;;;;;;5033907;28;20319;-70
2022/01/04 11:31:06;;;;;;;2.00;1.88;;;13.90;99.90;;;;;;5034718;28;20209;-70
2022/01/04 11:33:46;;;;;;;1.90;1.80;;;13.80;99.90;;;;;;5033942;28;20661;-70
2022/01/04 11:36:14;;;;;;;1.90;1.80;;;13.80;99.90;;;;;;5034276;28;20208;-70
2022/01/04 11:38:43;;;;;;;2.55;1.95;;;13.70;99.90;;;;;;5034271;28;20236;-69
2022/01/04 11:41:21;;;;;;;1.83;1.73;;;13.70;99.90;;;;;;5034467;28;20204;-69
2022/01/04 11:43:48;;;;;;;1.55;1.45;;;13.70;99.90;;;;;;5034315;28;20223;-70
2022/01/04 11:46:33;;;;;;;2.58;2.00;;;13.60;99.90;;;;;;5034557;28;20295;-69
2022/01/04 11:49:08;;;;;;;1.95;1.80;;;13.60;99.90;;;;;;5034498;28;20193;-70
2022/01/04 11:51:41;;;;;;;2.20;2.00;;;13.60;99.90;;;;;;5034523;28;20214;-69
2022/01/04 11:54:23;;;;;;;3.03;2.33;;;13.50;99.90;;;;;;5034061;28;20204;-69
2022/01/04 11:56:53;;;;;;;2.30;2.10;;;13.50;99.90;;;;;;5033420;28;20238;-70
2022/01/04 11:59:22;;;;;;;2.15;2.05;;;13.50;99.90;;;;;;5033232;28;20745;-69
2022/01/04 12:01:49;;;;;;;2.60;2.20;;;13.40;99.90;;;;;;5033870;28;20219;-69
2022/01/04 12:04:51;;;;;;;2.90;2.20;;;13.40;99.90;;;;;;5033803;28;20209;-69
2022/01/04 12:07:44;;;;;;;2.78;2.38;;;13.40;99.90;;;;;;5030294;28;20226;-69
2022/01/04 12:10:38;;;;;;;2.63;2.42;;;13.40;99.90;;;;;;5033728;28;20205;-69
2022/01/04 12:13:09;;;;;;;3.97;2.60;;;13.40;99.90;;;;;;5033831;28;20189;-69
2022/01/04 12:15:58;;;;;;;2.63;2.42;;;13.40;99.90;;;;;;5034831;28;20204;-69
2022/01/04 12:19:01;;;;;;;2.63;2.42;;;13.30;99.90;;;;;;5037414;28;20225;-69
2022/01/04 12:21:42;;;;;;;2.53;2.33;;;13.30;99.90;;;;;;5037451;28;20203;-69
2022/01/04 12:24:12;;;;;;;4.63;2.58;;;13.30;99.90;;;;;;5037383;28;20567;-70
2022/01/04 12:26:40;;;;;;;3.63;2.55;;;13.40;99.90;;;;;;5037486;28;20231;-70
2022/01/04 12:29:31;;;;;;;2.95;2.47;;;13.30;99.90;;;;;;5037530;28;20204;-69
2022/01/04 12:32:05;;;;;;;2.70;2.50;;;13.30;99.90;;;;;;5037441;28;20602;-69
2022/01/04 12:34:38;;;;;;;2.85;2.42;;;13.30;99.90;;;;;;5036676;28;20204;-69
2022/01/04 12:37:08;;;;;;;2.88;2.50;;;13.30;99.90;;;;;;5036931;28;20571;-70
2022/01/04 12:39:38;;;;;;;2.92;2.72;;;13.30;99.90;;;;;;5036913;28;20195;-69
2022/01/04 12:42:08;;;;;;;2.60;2.40;;;13.30;99.90;;;;;;5037094;28;20658;-69
2022/01/04 12:44:36;;;;;;;2.55;2.35;;;13.30;99.90;;;;;;5037101;28;20200;-70
2022/01/04 12:47:03;;;;;;;2.70;2.50;;;13.30;99.90;;;;;;5037601;28;20224;-69
2022/01/04 12:49:33;;;;;;;3.75;2.97;;;13.30;99.90;;;;;;5037032;28;20244;-69
2022/01/04 12:52:02;;;;;;;4.20;2.80;;;13.30;99.90;;;;;;5037083;28;20231;-69
2022/01/04 12:54:31;;;;;;;3.20;2.58;;;13.40;99.90;;;;;;5037295;28;20204;-70
2022/01/04 12:57:00;;;;;;;2.30;2.05;;;13.40;99.90;;;;;;5036946;28;20315;-70
2022/01/04 12:59:40;;;;;;;2.25;2.05;;;13.40;99.90;;;;;;5036892;28;20212;-69
2022/01/04 13:02:15;;;;;;;3.35;2.45;;;13.30;99.90;;;;;;5036459;28;20562;-69
2022/01/04 13:04:45;;;;;;;2.90;2.55;;;13.30;99.90;;;;;;5036530;28;20221;-69